Current Weather

Three Rivers Muni Dr Haines

Three Rivers, Michigan (KHAI)

Report from: Sunday, May 19, 2024 4:15 AM EDT
Current time: Sunday, May 19, 2024 4:30 AM EDT

Nearby weather – Weather history – Daily summaries
Weather forecast

Temperature17.0°C (62.6°F)
Dew point16.0°C (60.8°F)
Winds Calm
Visibility10 mi. (16.1 km)
Clouds Sky clear
Altimeter29.93 in.Hg (1014 mB)
Relative humidity94 %
Density altitude475 ft. (145 m)
Remarks Fully automated report
Automated weather observing station with precipitation discriminator
Flight conditions Visual Meteorological Conditions
Raw dataKHAI 190815Z AUTO 00000KT 10SM CLR 17/16 A2993 RMK AO2 T01700160
An error has occurred. This application may no longer respond until reloaded. Reload 🗙